sensor_id;sensor_type;location;lat;lon;timestamp;temperature;humidity
21801;DHT22;11062;51.164;16.924;2023-12-07T01:52:24;28.70;33.00
21801;DHT22;11062;51.164;16.924;2023-12-07T01:55:54;28.70;32.90
21801;DHT22;11062;51.164;16.924;2023-12-07T02:34:05;28.70;32.80
21801;DHT22;11062;51.164;16.924;2023-12-07T02:36:57;28.70;32.80
21801;DHT22;11062;51.164;16.924;2023-12-07T02:57:23;28.00;33.40
21801;DHT22;11062;51.164;16.924;2023-12-07T03:01:10;27.80;33.70
21801;DHT22;11062;51.164;16.924;2023-12-07T03:04:38;27.20;34.00
21801;DHT22;11062;51.164;16.924;2023-12-07T03:07:46;26.90;34.40
21801;DHT22;11062;51.164;16.924;2023-12-07T03:11:02;27.20;34.60
21801;DHT22;11062;51.164;16.924;2023-12-07T03:14:41;27.10;34.40
21801;DHT22;11062;51.164;16.924;2023-12-07T03:17:50;26.90;34.60
21801;DHT22;11062;51.164;16.924;2023-12-07T03:21:27;26.70;34.70
21801;DHT22;11062;51.164;16.924;2023-12-07T03:24:28;27.10;34.80
21801;DHT22;11062;51.164;16.924;2023-12-07T03:26:57;27.40;34.30
21801;DHT22;11062;51.164;16.924;2023-12-07T03:29:26;27.60;34.10
21801;DHT22;11062;51.164;16.924;2023-12-07T03:31:55;27.80;33.90
21801;DHT22;11062;51.164;16.924;2023-12-07T03:34:21;27.90;34.40
21801;DHT22;11062;51.164;16.924;2023-12-07T03:36:47;28.00;33.70
21801;DHT22;11062;51.164;16.924;2023-12-07T03:39:17;28.00;33.70
21801;DHT22;11062;51.164;16.924;2023-12-07T03:41:51;28.10;33.60
21801;DHT22;11062;51.164;16.924;2023-12-07T03:44:17;28.20;33.70
21801;DHT22;11062;51.164;16.924;2023-12-07T03:46:43;28.20;33.50
21801;DHT22;11062;51.164;16.924;2023-12-07T03:49:09;28.20;33.50
21801;DHT22;11062;51.164;16.924;2023-12-07T03:51:35;28.30;33.60
21801;DHT22;11062;51.164;16.924;2023-12-07T03:54:03;28.30;33.50
21801;DHT22;11062;51.164;16.924;2023-12-07T03:56:32;28.20;33.40
21801;DHT22;11062;51.164;16.924;2023-12-07T03:58:58;28.20;33.40
21801;DHT22;11062;51.164;16.924;2023-12-07T04:01:28;28.30;33.40
21801;DHT22;11062;51.164;16.924;2023-12-07T04:03:55;28.30;33.30
21801;DHT22;11062;51.164;16.924;2023-12-07T04:06:22;28.30;33.30
21801;DHT22;11062;51.164;16.924;2023-12-07T04:26:02;28.30;33.20
21801;DHT22;11062;51.164;16.924;2023-12-07T04:28:36;28.30;33.30
21801;DHT22;11062;51.164;16.924;2023-12-07T04:31:06;28.30;33.40
21801;DHT22;11062;51.164;16.924;2023-12-07T04:33:46;28.10;33.40
21801;DHT22;11062;51.164;16.924;2023-12-07T04:36:52;27.70;33.90
21801;DHT22;11062;51.164;16.924;2023-12-07T04:40:24;27.20;34.20
21801;DHT22;11062;51.164;16.924;2023-12-07T08:50:54;29.10;34.40
21801;DHT22;11062;51.164;16.924;2023-12-07T08:53:22;29.10;34.40
21801;DHT22;11062;51.164;16.924;2023-12-07T08:55:53;29.10;34.40
21801;DHT22;11062;51.164;16.924;2023-12-07T08:58:23;29.20;34.40
21801;DHT22;11062;51.164;16.924;2023-12-07T09:00:49;29.20;34.40
21801;DHT22;11062;51.164;16.924;2023-12-07T11:21:50;29.50;34.90
21801;DHT22;11062;51.164;16.924;2023-12-07T11:24:16;29.40;34.70
21801;DHT22;11062;51.164;16.924;2023-12-07T11:26:48;29.40;34.90
21801;DHT22;11062;51.164;16.924;2023-12-07T11:29:20;29.40;34.80
21801;DHT22;11062;51.164;16.924;2023-12-07T11:31:51;29.40;34.80
21801;DHT22;11062;51.164;16.924;2023-12-07T11:34:40;29.40;34.80
21801;DHT22;11062;51.164;16.924;2023-12-07T11:37:07;29.20;34.70
21801;DHT22;11062;51.164;16.924;2023-12-07T11:39:37;29.00;34.80
21801;DHT22;11062;51.164;16.924;2023-12-07T11:42:19;29.10;35.00
21801;DHT22;11062;51.164;16.924;2023-12-07T11:44:50;29.10;35.00
21801;DHT22;11062;51.164;16.924;2023-12-07T11:47:20;29.10;35.00
21801;DHT22;11062;51.164;16.924;2023-12-07T11:49:49;29.20;35.10
21801;DHT22;11062;51.164;16.924;2023-12-07T11:52:20;29.20;35.10
21801;DHT22;11062;51.164;16.924;2023-12-07T11:54:54;29.30;35.00
21801;DHT22;11062;51.164;16.924;2023-12-07T11:57:23;29.20;34.90
21801;DHT22;11062;51.164;16.924;2023-12-07T11:59:50;29.30;34.70
21801;DHT22;11062;51.164;16.924;2023-12-07T12:02:19;29.30;35.00
21801;DHT22;11062;51.164;16.924;2023-12-07T12:04:48;29.10;34.90
21801;DHT22;11062;51.164;16.924;2023-12-07T12:07:19;29.10;35.00
21801;DHT22;11062;51.164;16.924;2023-12-07T12:09:48;29.00;35.00
21801;DHT22;11062;51.164;16.924;2023-12-07T12:12:13;29.10;35.00
21801;DHT22;11062;51.164;16.924;2023-12-07T12:14:41;29.10;35.00
21801;DHT22;11062;51.164;16.924;2023-12-07T12:17:14;29.00;34.90
21801;DHT22;11062;51.164;16.924;2023-12-07T12:19:46;29.00;34.60
21801;DHT22;11062;51.164;16.924;2023-12-07T12:22:14;28.90;34.80
21801;DHT22;11062;51.164;16.924;2023-12-07T12:24:43;29.00;34.90
21801;DHT22;11062;51.164;16.924;2023-12-07T12:27:13;28.90;34.90
21801;DHT22;11062;51.164;16.924;2023-12-07T12:29:39;28.90;35.00
21801;DHT22;11062;51.164;16.924;2023-12-07T12:32:09;29.00;35.00
21801;DHT22;11062;51.164;16.924;2023-12-07T12:34:37;28.90;34.90
21801;DHT22;11062;51.164;16.924;2023-12-07T12:37:05;29.00;34.90
21801;DHT22;11062;51.164;16.924;2023-12-07T12:39:35;29.00;34.90
21801;DHT22;11062;51.164;16.924;2023-12-07T12:42:02;28.90;35.00
21801;DHT22;11062;51.164;16.924;2023-12-07T12:44:32;29.00;35.00
21801;DHT22;11062;51.164;16.924;2023-12-07T12:46:59;29.10;35.00
21801;DHT22;11062;51.164;16.924;2023-12-07T12:49:35;29.20;35.00
21801;DHT22;11062;51.164;16.924;2023-12-07T12:52:02;29.20;34.70
21801;DHT22;11062;51.164;16.924;2023-12-07T12:54:31;29.30;34.70
21801;DHT22;11062;51.164;16.924;2023-12-07T12:57:01;29.20;34.70
21801;DHT22;11062;51.164;16.924;2023-12-07T12:59:38;29.20;34.70
21801;DHT22;11062;51.164;16.924;2023-12-07T13:02:07;29.20;34.80
21801;DHT22;11062;51.164;16.924;2023-12-07T13:04:34;29.30;34.80
21801;DHT22;11062;51.164;16.924;2023-12-07T13:07:00;29.40;34.80
21801;DHT22;11062;51.164;16.924;2023-12-07T13:09:29;29.30;34.60
21801;DHT22;11062;51.164;16.924;2023-12-07T13:11:58;29.40;34.50
21801;DHT22;11062;51.164;16.924;2023-12-07T13:14:26;29.40;34.60
21801;DHT22;11062;51.164;16.924;2023-12-07T13:16:52;29.50;34.50
21801;DHT22;11062;51.164;16.924;2023-12-07T13:19:24;29.50;34.60
21801;DHT22;11062;51.164;16.924;2023-12-07T13:21:50;29.30;34.40
21801;DHT22;11062;51.164;16.924;2023-12-07T13:24:19;29.30;34.60
21801;DHT22;11062;51.164;16.924;2023-12-07T13:26:53;29.20;34.60
21801;DHT22;11062;51.164;16.924;2023-12-07T13:29:19;29.30;34.60
21801;DHT22;11062;51.164;16.924;2023-12-07T13:31:52;29.20;34.60
21801;DHT22;11062;51.164;16.924;2023-12-07T13:34:23;29.10;34.60
21801;DHT22;11062;51.164;16.924;2023-12-07T13:36:51;29.20;34.70
21801;DHT22;11062;51.164;16.924;2023-12-07T13:39:17;29.20;34.70
21801;DHT22;11062;51.164;16.924;2023-12-07T13:41:46;29.30;34.70
21801;DHT22;11062;51.164;16.924;2023-12-07T13:44:18;29.40;34.70
21801;DHT22;11062;51.164;16.924;2023-12-07T13:46:44;29.50;34.60
21801;DHT22;11062;51.164;16.924;2023-12-07T13:49:16;29.60;34.50
21801;DHT22;11062;51.164;16.924;2023-12-07T13:51:44;29.70;35.20
21801;DHT22;11062;51.164;16.924;2023-12-07T13:54:14;29.70;34.40
21801;DHT22;11062;51.164;16.924;2023-12-07T13:56:42;29.80;34.30
21801;DHT22;11062;51.164;16.924;2023-12-07T13:59:08;29.80;34.20
21801;DHT22;11062;51.164;16.924;2023-12-07T14:01:37;29.90;34.30
21801;DHT22;11062;51.164;16.924;2023-12-07T14:04:07;29.90;34.10
21801;DHT22;11062;51.164;16.924;2023-12-07T14:06:36;30.00;34.20
21801;DHT22;11062;51.164;16.924;2023-12-07T14:09:05;30.00;34.10
21801;DHT22;11062;51.164;16.924;2023-12-07T14:11:43;30.00;34.00
21801;DHT22;11062;51.164;16.924;2023-12-07T14:14:12;30.10;34.10
21801;DHT22;11062;51.164;16.924;2023-12-07T14:16:38;30.10;34.00
21801;DHT22;11062;51.164;16.924;2023-12-07T14:19:05;30.10;34.00
21801;DHT22;11062;51.164;16.924;2023-12-07T14:21:31;30.10;34.00
21801;DHT22;11062;51.164;16.924;2023-12-07T14:23:59;30.10;34.00
21801;DHT22;11062;51.164;16.924;2023-12-07T14:26:25;30.10;34.50
21801;DHT22;11062;51.164;16.924;2023-12-07T14:28:54;30.10;34.10
21801;DHT22;11062;51.164;16.924;2023-12-07T14:31:25;30.10;34.10
21801;DHT22;11062;51.164;16.924;2023-12-07T14:33:57;30.10;34.20
21801;DHT22;11062;51.164;16.924;2023-12-07T14:36:30;30.00;34.00
21801;DHT22;11062;51.164;16.924;2023-12-07T14:38:59;30.10;34.10
21801;DHT22;11062;51.164;16.924;2023-12-07T14:41:32;30.10;34.00
21801;DHT22;11062;51.164;16.924;2023-12-07T14:44:01;30.00;34.00
21801;DHT22;11062;51.164;16.924;2023-12-07T14:46:27;30.00;34.00
21801;DHT22;11062;51.164;16.924;2023-12-07T14:48:53;30.00;34.10
21801;DHT22;11062;51.164;16.924;2023-12-07T14:51:22;30.00;34.10
21801;DHT22;11062;51.164;16.924;2023-12-07T14:53:50;30.00;34.10
21801;DHT22;11062;51.164;16.924;2023-12-07T14:56:16;30.00;34.10
21801;DHT22;11062;51.164;16.924;2023-12-07T14:58:49;30.00;34.10
21801;DHT22;11062;51.164;16.924;2023-12-07T15:01:24;30.00;34.10
21801;DHT22;11062;51.164;16.924;2023-12-07T15:03:51;30.00;34.10
21801;DHT22;11062;51.164;16.924;2023-12-07T15:06:23;29.90;34.10
21801;DHT22;11062;51.164;16.924;2023-12-07T15:08:53;30.00;34.20
21801;DHT22;11062;51.164;16.924;2023-12-07T15:11:21;29.90;34.20
21801;DHT22;11062;51.164;16.924;2023-12-07T15:13:50;29.90;34.20
21801;DHT22;11062;51.164;16.924;2023-12-07T15:16:25;29.90;34.10
21801;DHT22;11062;51.164;16.924;2023-12-07T15:18:51;29.90;34.00
21801;DHT22;11062;51.164;16.924;2023-12-07T15:21:17;29.90;34.00
21801;DHT22;11062;51.164;16.924;2023-12-07T15:23:46;29.90;34.00
21801;DHT22;11062;51.164;16.924;2023-12-07T15:26:12;29.90;34.10
21801;DHT22;11062;51.164;16.924;2023-12-07T15:28:39;29.90;34.10
21801;DHT22;11062;51.164;16.924;2023-12-07T15:31:10;29.90;34.20
21801;DHT22;11062;51.164;16.924;2023-12-07T15:33:36;29.90;34.20
21801;DHT22;11062;51.164;16.924;2023-12-07T15:36:07;29.90;34.10
21801;DHT22;11062;51.164;16.924;2023-12-07T15:38:32;29.80;34.00
21801;DHT22;11062;51.164;16.924;2023-12-07T15:41:02;29.80;34.10
21801;DHT22;11062;51.164;16.924;2023-12-07T15:43:31;29.80;34.10
21801;DHT22;11062;51.164;16.924;2023-12-07T15:45:57;29.80;34.20
21801;DHT22;11062;51.164;16.924;2023-12-07T15:48:25;29.80;34.20
21801;DHT22;11062;51.164;16.924;2023-12-07T15:50:53;29.80;34.10
21801;DHT22;11062;51.164;16.924;2023-12-07T15:53:19;29.70;34.10
21801;DHT22;11062;51.164;16.924;2023-12-07T15:55:50;29.70;34.10
21801;DHT22;11062;51.164;16.924;2023-12-07T15:58:19;29.70;34.10
21801;DHT22;11062;51.164;16.924;2023-12-07T16:00:45;29.80;34.20
21801;DHT22;11062;51.164;16.924;2023-12-07T16:03:14;29.70;34.20
21801;DHT22;11062;51.164;16.924;2023-12-07T16:05:50;29.70;34.10
21801;DHT22;11062;51.164;16.924;2023-12-07T16:08:19;29.80;34.20
21801;DHT22;11062;51.164;16.924;2023-12-07T16:10:45;29.70;34.30
21801;DHT22;11062;51.164;16.924;2023-12-07T16:13:13;29.80;34.10
21801;DHT22;11062;51.164;16.924;2023-12-07T16:15:39;29.70;34.00
21801;DHT22;11062;51.164;16.924;2023-12-07T16:18:05;29.70;34.00
21801;DHT22;11062;51.164;16.924;2023-12-07T16:20:33;29.70;34.10
21801;DHT22;11062;51.164;16.924;2023-12-07T16:23:05;29.70;34.20
21801;DHT22;11062;51.164;16.924;2023-12-07T16:25:33;29.70;34.20
21801;DHT22;11062;51.164;16.924;2023-12-07T16:27:59;29.70;34.20
21801;DHT22;11062;51.164;16.924;2023-12-07T16:30:31;29.70;34.30
21801;DHT22;11062;51.164;16.924;2023-12-07T16:32:57;29.70;34.30
21801;DHT22;11062;51.164;16.924;2023-12-07T16:35:23;29.70;34.20
21801;DHT22;11062;51.164;16.924;2023-12-07T16:37:49;29.70;34.20
21801;DHT22;11062;51.164;16.924;2023-12-07T16:40:15;29.70;34.20
21801;DHT22;11062;51.164;16.924;2023-12-07T16:42:41;29.70;34.20
21801;DHT22;11062;51.164;16.924;2023-12-07T16:45:12;29.70;34.20
21801;DHT22;11062;51.164;16.924;2023-12-07T16:47:40;29.70;34.20
21801;DHT22;11062;51.164;16.924;2023-12-07T16:50:07;29.70;34.20
21801;DHT22;11062;51.164;16.924;2023-12-07T16:52:33;29.70;34.20
21801;DHT22;11062;51.164;16.924;2023-12-07T16:54:59;29.70;34.20
21801;DHT22;11062;51.164;16.924;2023-12-07T16:57:30;29.70;34.20
21801;DHT22;11062;51.164;16.924;2023-12-07T16:59:59;29.70;34.10
21801;DHT22;11062;51.164;16.924;2023-12-07T17:02:28;29.70;34.20
21801;DHT22;11062;51.164;16.924;2023-12-07T17:04:56;29.70;34.20
21801;DHT22;11062;51.164;16.924;2023-12-07T17:07:30;29.70;34.20
21801;DHT22;11062;51.164;16.924;2023-12-07T17:09:58;29.70;34.40
21801;DHT22;11062;51.164;16.924;2023-12-07T17:12:27;29.70;34.40
21801;DHT22;11062;51.164;16.924;2023-12-07T17:14:53;29.60;34.40
21801;DHT22;11062;51.164;16.924;2023-12-07T17:17:27;29.60;34.40
21801;DHT22;11062;51.164;16.924;2023-12-07T17:19:58;29.70;34.50
21801;DHT22;11062;51.164;16.924;2023-12-07T17:22:26;29.70;34.40
21801;DHT22;11062;51.164;16.924;2023-12-07T17:24:52;29.70;34.40
21801;DHT22;11062;51.164;16.924;2023-12-07T17:27:18;29.70;34.50
21801;DHT22;11062;51.164;16.924;2023-12-07T17:29:49;29.70;34.40
21801;DHT22;11062;51.164;16.924;2023-12-07T17:32:15;29.70;34.30
21801;DHT22;11062;51.164;16.924;2023-12-07T17:34:40;29.70;34.30
21801;DHT22;11062;51.164;16.924;2023-12-07T17:37:12;29.70;34.30
21801;DHT22;11062;51.164;16.924;2023-12-07T17:39:42;29.70;34.30
21801;DHT22;11062;51.164;16.924;2023-12-07T17:42:08;29.70;34.30
21801;DHT22;11062;51.164;16.924;2023-12-07T17:44:37;29.70;34.30
21801;DHT22;11062;51.164;16.924;2023-12-07T17:47:05;29.70;34.30
21801;DHT22;11062;51.164;16.924;2023-12-07T17:49:31;29.70;34.30
21801;DHT22;11062;51.164;16.924;2023-12-07T17:52:00;29.70;34.40
21801;DHT22;11062;51.164;16.924;2023-12-07T17:54:28;29.70;34.40
21801;DHT22;11062;51.164;16.924;2023-12-07T17:56:57;29.70;34.30
21801;DHT22;11062;51.164;16.924;2023-12-07T17:59:23;29.70;34.30
21801;DHT22;11062;51.164;16.924;2023-12-07T18:01:52;29.70;34.30
21801;DHT22;11062;51.164;16.924;2023-12-07T18:04:18;29.70;34.40
21801;DHT22;11062;51.164;16.924;2023-12-07T18:06:52;29.70;34.30
21801;DHT22;11062;51.164;16.924;2023-12-07T18:09:25;29.70;34.20
21801;DHT22;11062;51.164;16.924;2023-12-07T18:12:11;29.70;34.30
21801;DHT22;11062;51.164;16.924;2023-12-07T18:14:37;29.80;34.30
21801;DHT22;11062;51.164;16.924;2023-12-07T18:17:06;29.70;34.30
21801;DHT22;11062;51.164;16.924;2023-12-07T18:19:35;29.70;34.30
21801;DHT22;11062;51.164;16.924;2023-12-07T18:22:07;29.70;34.30
21801;DHT22;11062;51.164;16.924;2023-12-07T18:24:35;29.70;34.30
21801;DHT22;11062;51.164;16.924;2023-12-07T18:27:00;29.70;34.30
21801;DHT22;11062;51.164;16.924;2023-12-07T18:29:29;29.70;34.30
21801;DHT22;11062;51.164;16.924;2023-12-07T18:31:59;29.70;34.20
21801;DHT22;11062;51.164;16.924;2023-12-07T18:34:33;29.70;34.20
21801;DHT22;11062;51.164;16.924;2023-12-07T18:37:12;29.70;34.20
21801;DHT22;11062;51.164;16.924;2023-12-07T18:39:47;29.80;34.30
21801;DHT22;11062;51.164;16.924;2023-12-07T18:42:13;29.70;34.30
21801;DHT22;11062;51.164;16.924;2023-12-07T18:44:42;29.70;34.30
21801;DHT22;11062;51.164;16.924;2023-12-07T18:47:08;29.80;34.30
21801;DHT22;11062;51.164;16.924;2023-12-07T18:49:36;29.70;34.30
21801;DHT22;11062;51.164;16.924;2023-12-07T18:52:02;29.70;34.20
21801;DHT22;11062;51.164;16.924;2023-12-07T18:54:42;29.70;34.20
21801;DHT22;11062;51.164;16.924;2023-12-07T18:57:14;29.70;34.30
21801;DHT22;11062;51.164;16.924;2023-12-07T18:59:47;29.70;34.20
21801;DHT22;11062;51.164;16.924;2023-12-07T19:02:16;29.70;34.30
21801;DHT22;11062;51.164;16.924;2023-12-07T19:04:42;29.70;34.30
21801;DHT22;11062;51.164;16.924;2023-12-07T19:07:10;29.70;34.20
21801;DHT22;11062;51.164;16.924;2023-12-07T19:09:52;29.70;34.10
21801;DHT22;11062;51.164;16.924;2023-12-07T19:12:27;29.80;34.20
21801;DHT22;11062;51.164;16.924;2023-12-07T19:15:02;29.80;34.10
21801;DHT22;11062;51.164;16.924;2023-12-07T19:17:30;29.80;34.20
21801;DHT22;11062;51.164;16.924;2023-12-07T19:19:56;29.70;34.20
21801;DHT22;11062;51.164;16.924;2023-12-07T19:22:27;29.70;34.20
21801;DHT22;11062;51.164;16.924;2023-12-07T19:25:09;29.80;34.30
21801;DHT22;11062;51.164;16.924;2023-12-07T19:27:35;29.80;34.20
21801;DHT22;11062;51.164;16.924;2023-12-07T19:30:10;29.70;34.30
21801;DHT22;11062;51.164;16.924;2023-12-07T19:32:36;29.70;34.30
21801;DHT22;11062;51.164;16.924;2023-12-07T19:35:05;29.70;34.30
21801;DHT22;11062;51.164;16.924;2023-12-07T19:37:36;29.80;34.30
21801;DHT22;11062;51.164;16.924;2023-12-07T19:40:03;29.70;34.20
21801;DHT22;11062;51.164;16.924;2023-12-07T19:42:29;29.70;34.20
21801;DHT22;11062;51.164;16.924;2023-12-07T19:45:06;29.70;34.20
21801;DHT22;11062;51.164;16.924;2023-12-07T19:47:34;29.70;34.20
21801;DHT22;11062;51.164;16.924;2023-12-07T19:50:00;29.80;34.30
21801;DHT22;11062;51.164;16.924;2023-12-07T19:52:26;29.70;34.30
21801;DHT22;11062;51.164;16.924;2023-12-07T19:54:55;29.70;34.30
21801;DHT22;11062;51.164;16.924;2023-12-07T19:57:26;29.80;34.30
21801;DHT22;11062;51.164;16.924;2023-12-07T19:59:52;29.70;34.30
21801;DHT22;11062;51.164;16.924;2023-12-07T20:02:19;29.70;34.30
21801;DHT22;11062;51.164;16.924;2023-12-07T20:04:45;29.70;34.30
21801;DHT22;11062;51.164;16.924;2023-12-07T20:07:11;29.70;34.30
21801;DHT22;11062;51.164;16.924;2023-12-07T20:09:40;29.70;34.30
21801;DHT22;11062;51.164;16.924;2023-12-07T20:12:08;29.70;34.30
21801;DHT22;11062;51.164;16.924;2023-12-07T20:14:40;29.70;34.20
21801;DHT22;11062;51.164;16.924;2023-12-07T20:17:16;29.70;34.20
21801;DHT22;11062;51.164;16.924;2023-12-07T20:19:44;29.70;34.20
21801;DHT22;11062;51.164;16.924;2023-12-07T20:22:16;29.70;34.30
21801;DHT22;11062;51.164;16.924;2023-12-07T20:24:45;29.70;34.20
21801;DHT22;11062;51.164;16.924;2023-12-07T20:27:13;29.70;34.30
21801;DHT22;11062;51.164;16.924;2023-12-07T20:29:39;29.70;34.30
21801;DHT22;11062;51.164;16.924;2023-12-07T20:32:07;29.70;34.30
21801;DHT22;11062;51.164;16.924;2023-12-07T20:34:40;29.70;34.30
21801;DHT22;11062;51.164;16.924;2023-12-07T20:37:16;29.70;34.30
21801;DHT22;11062;51.164;16.924;2023-12-07T20:39:46;29.70;34.30
21801;DHT22;11062;51.164;16.924;2023-12-07T20:42:11;29.70;34.40
21801;DHT22;11062;51.164;16.924;2023-12-07T20:44:38;29.70;34.40
21801;DHT22;11062;51.164;16.924;2023-12-07T20:47:13;29.70;34.30
21801;DHT22;11062;51.164;16.924;2023-12-07T20:49:39;29.70;34.30
21801;DHT22;11062;51.164;16.924;2023-12-07T20:52:08;29.70;35.00
21801;DHT22;11062;51.164;16.924;2023-12-07T20:54:37;29.70;34.30
21801;DHT22;11062;51.164;16.924;2023-12-07T20:57:06;29.70;34.30
21801;DHT22;11062;51.164;16.924;2023-12-07T20:59:35;29.70;34.30
21801;DHT22;11062;51.164;16.924;2023-12-07T21:02:05;29.70;34.30
21801;DHT22;11062;51.164;16.924;2023-12-07T21:04:31;29.70;34.20
21801;DHT22;11062;51.164;16.924;2023-12-07T21:06:57;29.70;34.30
21801;DHT22;11062;51.164;16.924;2023-12-07T21:09:28;29.70;34.20
21801;DHT22;11062;51.164;16.924;2023-12-07T21:11:54;29.70;34.20
21801;DHT22;11062;51.164;16.924;2023-12-07T21:14:20;29.70;34.20
21801;DHT22;11062;51.164;16.924;2023-12-07T21:16:46;29.70;34.20
21801;DHT22;11062;51.164;16.924;2023-12-07T21:19:12;29.70;34.20
21801;DHT22;11062;51.164;16.924;2023-12-07T21:21:41;29.70;34.20
21801;DHT22;11062;51.164;16.924;2023-12-07T21:24:07;29.70;34.20
21801;DHT22;11062;51.164;16.924;2023-12-07T21:26:36;29.50;34.30
21801;DHT22;11062;51.164;16.924;2023-12-07T21:29:02;29.40;34.50
21801;DHT22;11062;51.164;16.924;2023-12-07T21:31:28;29.40;34.60
21801;DHT22;11062;51.164;16.924;2023-12-07T21:33:56;29.40;34.60
21801;DHT22;11062;51.164;16.924;2023-12-07T21:36:24;29.60;34.70
21801;DHT22;11062;51.164;16.924;2023-12-07T21:38:53;28.80;34.80
21801;DHT22;11062;51.164;16.924;2023-12-07T21:41:22;28.40;35.10
21801;DHT22;11062;51.164;16.924;2023-12-07T21:43:53;28.10;35.40
21801;DHT22;11062;51.164;16.924;2023-12-07T21:46:25;27.50;35.70
21801;DHT22;11062;51.164;16.924;2023-12-07T21:48:51;27.50;36.00
21801;DHT22;11062;51.164;16.924;2023-12-07T21:51:19;27.40;36.20
21801;DHT22;11062;51.164;16.924;2023-12-07T21:53:48;27.20;36.40
21801;DHT22;11062;51.164;16.924;2023-12-07T21:56:17;27.10;36.50
21801;DHT22;11062;51.164;16.924;2023-12-07T21:58:43;27.30;36.70
21801;DHT22;11062;51.164;16.924;2023-12-07T22:01:30;27.30;36.60
21801;DHT22;11062;51.164;16.924;2023-12-07T22:17:49;28.90;35.20
21801;DHT22;11062;51.164;16.924;2023-12-07T22:21:17;29.10;35.00
21801;DHT22;11062;51.164;16.924;2023-12-07T22:28:10;29.30;34.70
21801;DHT22;11062;51.164;16.924;2023-12-07T22:31:12;29.40;34.50
21801;DHT22;11062;51.164;16.924;2023-12-07T22:34:09;29.50;34.50
21801;DHT22;11062;51.164;16.924;2023-12-07T22:37:25;29.50;34.40
21801;DHT22;11062;51.164;16.924;2023-12-07T22:40:29;29.50;34.40
21801;DHT22;11062;51.164;16.924;2023-12-07T22:43:57;29.50;34.40
21801;DHT22;11062;51.164;16.924;2023-12-07T22:47:32;29.50;34.30
21801;DHT22;11062;51.164;16.924;2023-12-07T22:51:10;29.50;34.20
21801;DHT22;11062;51.164;16.924;2023-12-07T22:54:29;29.50;34.20
21801;DHT22;11062;51.164;16.924;2023-12-07T23:04:29;29.50;34.20
21801;DHT22;11062;51.164;16.924;2023-12-07T23:07:31;29.50;34.20
21801;DHT22;11062;51.164;16.924;2023-12-07T23:10:27;29.50;34.20
21801;DHT22;11062;51.164;16.924;2023-12-07T23:13:48;29.50;34.20
21801;DHT22;11062;51.164;16.924;2023-12-07T23:20:51;29.30;34.20
21801;DHT22;11062;51.164;16.924;2023-12-07T23:24:26;28.80;34.60
